sensor_id;sensor_type;location;lat;lon;timestamp;pressure;altitude;pressure_sealevel;temperature;humidity
51999;BME280;73339;50.924;11.598;2024-01-07T00:01:18;99228.83;;;19.67;32.81
51999;BME280;73339;50.924;11.598;2024-01-07T00:03:50;99231.51;;;19.66;32.82
51999;BME280;73339;50.924;11.598;2024-01-07T00:06:19;99226.06;;;19.59;33.08
51999;BME280;73339;50.924;11.598;2024-01-07T00:08:49;99229.98;;;19.64;32.80
51999;BME280;73339;50.924;11.598;2024-01-07T00:11:20;99231.32;;;19.67;32.77
51999;BME280;73339;50.924;11.598;2024-01-07T00:13:50;99233.22;;;19.72;32.62
51999;BME280;73339;50.924;11.598;2024-01-07T00:16:21;99235.38;;;19.67;32.73
51999;BME280;73339;50.924;11.598;2024-01-07T00:18:51;99242.26;;;19.74;32.59
51999;BME280;73339;50.924;11.598;2024-01-07T00:21:21;99247.06;;;19.67;32.74
51999;BME280;73339;50.924;11.598;2024-01-07T00:23:51;99247.60;;;19.69;32.74
51999;BME280;73339;50.924;11.598;2024-01-07T00:26:22;99246.18;;;19.65;32.80
51999;BME280;73339;50.924;11.598;2024-01-07T00:28:52;99245.54;;;19.66;32.75
51999;BME280;73339;50.924;11.598;2024-01-07T00:31:22;99245.92;;;19.69;32.71
51999;BME280;73339;50.924;11.598;2024-01-07T00:33:53;99247.85;;;19.70;32.69
51999;BME280;73339;50.924;11.598;2024-01-07T00:36:23;99250.60;;;19.71;32.67
51999;BME280;73339;50.924;11.598;2024-01-07T00:38:54;99249.83;;;19.69;32.68
51999;BME280;73339;50.924;11.598;2024-01-07T00:41:24;99249.16;;;19.56;32.89
51999;BME280;73339;50.924;11.598;2024-01-07T00:43:54;99259.50;;;19.64;32.67
51999;BME280;73339;50.924;11.598;2024-01-07T00:46:25;99257.32;;;19.70;32.58
51999;BME280;73339;50.924;11.598;2024-01-07T00:48:55;99262.67;;;19.61;32.72
51999;BME280;73339;50.924;11.598;2024-01-07T00:51:25;99267.34;;;19.58;32.75
51999;BME280;73339;50.924;11.598;2024-01-07T00:53:55;99270.36;;;19.64;32.70
51999;BME280;73339;50.924;11.598;2024-01-07T00:56:26;99274.56;;;19.63;32.70
51999;BME280;73339;50.924;11.598;2024-01-07T00:58:56;99275.50;;;19.63;32.61
51999;BME280;73339;50.924;11.598;2024-01-07T01:01:26;99279.66;;;19.59;32.71
51999;BME280;73339;50.924;11.598;2024-01-07T01:03:57;99279.83;;;19.65;32.61
51999;BME280;73339;50.924;11.598;2024-01-07T01:06:28;99278.89;;;19.66;32.61
51999;BME280;73339;50.924;11.598;2024-01-07T01:08:58;99285.15;;;19.63;32.73
51999;BME280;73339;50.924;11.598;2024-01-07T01:11:29;99284.26;;;19.67;32.59
51999;BME280;73339;50.924;11.598;2024-01-07T01:13:59;99285.61;;;19.68;32.64
51999;BME280;73339;50.924;11.598;2024-01-07T01:16:29;99294.59;;;19.59;32.74
51999;BME280;73339;50.924;11.598;2024-01-07T01:18:59;99296.86;;;19.58;32.69
51999;BME280;73339;50.924;11.598;2024-01-07T01:21:30;99298.49;;;19.55;32.75
51999;BME280;73339;50.924;11.598;2024-01-07T01:24:01;99300.80;;;19.48;32.81
51999;BME280;73339;50.924;11.598;2024-01-07T01:26:31;99301.79;;;19.57;32.50
51999;BME280;73339;50.924;11.598;2024-01-07T01:29:01;99304.57;;;19.56;32.42
51999;BME280;73339;50.924;11.598;2024-01-07T01:31:32;99307.14;;;19.64;32.35
51999;BME280;73339;50.924;11.598;2024-01-07T01:34:02;99305.59;;;19.55;32.42
51999;BME280;73339;50.924;11.598;2024-01-07T01:36:33;99309.67;;;19.63;32.25
51999;BME280;73339;50.924;11.598;2024-01-07T01:39:04;99310.27;;;19.57;32.24
51999;BME280;73339;50.924;11.598;2024-01-07T01:41:34;99316.63;;;19.60;32.24
51999;BME280;73339;50.924;11.598;2024-01-07T01:44:05;99320.23;;;19.55;32.27
51999;BME280;73339;50.924;11.598;2024-01-07T01:46:35;99320.42;;;19.58;32.21
51999;BME280;73339;50.924;11.598;2024-01-07T01:49:06;99324.68;;;19.55;32.29
51999;BME280;73339;50.924;11.598;2024-01-07T01:51:36;99326.71;;;19.57;32.27
51999;BME280;73339;50.924;11.598;2024-01-07T01:54:06;99332.33;;;19.57;32.25
51999;BME280;73339;50.924;11.598;2024-01-07T01:56:36;99337.94;;;19.60;32.24
51999;BME280;73339;50.924;11.598;2024-01-07T01:59:07;99342.00;;;19.53;32.34
51999;BME280;73339;50.924;11.598;2024-01-07T02:01:37;99348.61;;;19.62;32.15
51999;BME280;73339;50.924;11.598;2024-01-07T02:04:08;99349.32;;;19.57;32.25
51999;BME280;73339;50.924;11.598;2024-01-07T02:06:38;99350.41;;;19.58;32.17
51999;BME280;73339;50.924;11.598;2024-01-07T02:09:08;99351.40;;;19.36;32.61
51999;BME280;73339;50.924;11.598;2024-01-07T02:11:38;99354.72;;;19.63;32.04
51999;BME280;73339;50.924;11.598;2024-01-07T02:14:09;99357.11;;;19.65;32.02
51999;BME280;73339;50.924;11.598;2024-01-07T02:16:40;99359.72;;;19.54;32.26
51999;BME280;73339;50.924;11.598;2024-01-07T02:19:10;99363.80;;;19.53;32.27
51999;BME280;73339;50.924;11.598;2024-01-07T02:21:41;99367.49;;;19.55;32.21
51999;BME280;73339;50.924;11.598;2024-01-07T02:24:15;99366.92;;;19.52;32.30
51999;BME280;73339;50.924;11.598;2024-01-07T02:26:41;99371.36;;;19.60;32.11
51999;BME280;73339;50.924;11.598;2024-01-07T02:29:12;99372.19;;;19.58;32.12
51999;BME280;73339;50.924;11.598;2024-01-07T02:31:42;99377.75;;;19.60;32.06
51999;BME280;73339;50.924;11.598;2024-01-07T02:34:12;99378.76;;;19.60;32.06
51999;BME280;73339;50.924;11.598;2024-01-07T02:36:43;99374.83;;;19.56;32.14
51999;BME280;73339;50.924;11.598;2024-01-07T02:39:13;99375.42;;;19.63;32.09
51999;BME280;73339;50.924;11.598;2024-01-07T02:41:44;99381.68;;;19.53;32.19
51999;BME280;73339;50.924;11.598;2024-01-07T02:44:14;99379.36;;;19.56;32.20
51999;BME280;73339;50.924;11.598;2024-01-07T02:46:45;99381.48;;;19.64;32.03
51999;BME280;73339;50.924;11.598;2024-01-07T02:49:15;99383.93;;;19.65;32.04
51999;BME280;73339;50.924;11.598;2024-01-07T02:51:45;99386.16;;;19.59;32.10
51999;BME280;73339;50.924;11.598;2024-01-07T02:54:16;99388.92;;;19.57;32.20
51999;BME280;73339;50.924;11.598;2024-01-07T02:56:47;99392.84;;;19.63;32.10
51999;BME280;73339;50.924;11.598;2024-01-07T02:59:17;99396.67;;;19.59;32.15
51999;BME280;73339;50.924;11.598;2024-01-07T03:01:47;99397.84;;;19.63;32.07
51999;BME280;73339;50.924;11.598;2024-01-07T03:04:18;99399.23;;;19.61;32.10
51999;BME280;73339;50.924;11.598;2024-01-07T03:06:48;99396.27;;;19.59;32.19
51999;BME280;73339;50.924;11.598;2024-01-07T03:09:19;99397.58;;;19.59;32.16
51999;BME280;73339;50.924;11.598;2024-01-07T03:11:49;99398.61;;;19.56;32.23
51999;BME280;73339;50.924;11.598;2024-01-07T03:14:20;99398.14;;;19.64;32.09
51999;BME280;73339;50.924;11.598;2024-01-07T03:16:50;99396.69;;;19.62;32.12
51999;BME280;73339;50.924;11.598;2024-01-07T03:19:20;99394.00;;;19.62;32.10
51999;BME280;73339;50.924;11.598;2024-01-07T03:21:50;99392.52;;;19.62;32.14
51999;BME280;73339;50.924;11.598;2024-01-07T03:24:21;99391.80;;;19.66;32.15
51999;BME280;73339;50.924;11.598;2024-01-07T03:26:51;99393.81;;;19.63;32.12
51999;BME280;73339;50.924;11.598;2024-01-07T03:29:22;99391.48;;;19.58;32.22
51999;BME280;73339;50.924;11.598;2024-01-07T03:31:52;99394.43;;;19.62;32.20
51999;BME280;73339;50.924;11.598;2024-01-07T03:34:22;99396.42;;;19.60;32.19
51999;BME280;73339;50.924;11.598;2024-01-07T03:36:53;99396.53;;;19.61;32.17
51999;BME280;73339;50.924;11.598;2024-01-07T03:39:23;99399.52;;;19.60;32.25
51999;BME280;73339;50.924;11.598;2024-01-07T03:41:54;99402.69;;;19.60;32.18
51999;BME280;73339;50.924;11.598;2024-01-07T03:44:24;99400.93;;;19.54;32.33
51999;BME280;73339;50.924;11.598;2024-01-07T03:46:54;99403.28;;;19.60;32.22
51999;BME280;73339;50.924;11.598;2024-01-07T03:49:24;99403.15;;;19.57;32.28
51999;BME280;73339;50.924;11.598;2024-01-07T03:51:54;99408.16;;;19.53;32.29
51999;BME280;73339;50.924;11.598;2024-01-07T03:54:25;99408.83;;;19.58;32.14
51999;BME280;73339;50.924;11.598;2024-01-07T03:56:56;99411.99;;;19.59;32.12
51999;BME280;73339;50.924;11.598;2024-01-07T03:59:26;99415.40;;;19.58;32.20
51999;BME280;73339;50.924;11.598;2024-01-07T04:01:57;99414.91;;;19.46;32.33
51999;BME280;73339;50.924;11.598;2024-01-07T04:04:27;99416.64;;;19.57;32.20
51999;BME280;73339;50.924;11.598;2024-01-07T04:06:57;99422.80;;;19.61;32.07
51999;BME280;73339;50.924;11.598;2024-01-07T04:09:27;99422.08;;;19.58;32.14
51999;BME280;73339;50.924;11.598;2024-01-07T04:11:58;99429.44;;;19.51;32.21
51999;BME280;73339;50.924;11.598;2024-01-07T04:14:28;99424.46;;;19.59;32.05
51999;BME280;73339;50.924;11.598;2024-01-07T04:16:59;99430.77;;;19.62;32.02
51999;BME280;73339;50.924;11.598;2024-01-07T04:19:30;99435.11;;;19.54;32.14
51999;BME280;73339;50.924;11.598;2024-01-07T04:22:00;99437.39;;;19.56;32.09
51999;BME280;73339;50.924;11.598;2024-01-07T04:24:31;99438.06;;;19.54;32.12
51999;BME280;73339;50.924;11.598;2024-01-07T04:27:01;99447.25;;;19.56;32.14
51999;BME280;73339;50.924;11.598;2024-01-07T04:29:31;99446.91;;;19.59;32.09
51999;BME280;73339;50.924;11.598;2024-01-07T04:32:02;99450.25;;;19.57;32.03
51999;BME280;73339;50.924;11.598;2024-01-07T04:34:32;99457.18;;;19.52;32.13
51999;BME280;73339;50.924;11.598;2024-01-07T04:37:03;99456.26;;;19.53;32.11
51999;BME280;73339;50.924;11.598;2024-01-07T04:39:33;99461.24;;;19.57;32.03
51999;BME280;73339;50.924;11.598;2024-01-07T04:42:03;99464.46;;;19.50;32.15
51999;BME280;73339;50.924;11.598;2024-01-07T04:44:34;99467.16;;;19.49;32.18
51999;BME280;73339;50.924;11.598;2024-01-07T04:47:04;99465.41;;;19.58;31.93
51999;BME280;73339;50.924;11.598;2024-01-07T04:49:34;99464.83;;;19.60;31.95
51999;BME280;73339;50.924;11.598;2024-01-07T04:52:05;99470.49;;;19.55;31.99
51999;BME280;73339;50.924;11.598;2024-01-07T04:54:36;99479.27;;;19.47;32.05
51999;BME280;73339;50.924;11.598;2024-01-07T04:57:06;99473.68;;;19.45;31.95
51999;BME280;73339;50.924;11.598;2024-01-07T04:59:37;99471.19;;;19.50;31.76
51999;BME280;73339;50.924;11.598;2024-01-07T05:02:07;99476.51;;;19.41;31.89
51999;BME280;73339;50.924;11.598;2024-01-07T05:04:38;99479.16;;;19.50;31.72
51999;BME280;73339;50.924;11.598;2024-01-07T05:07:08;99481.25;;;19.51;31.66
51999;BME280;73339;50.924;11.598;2024-01-07T05:09:39;99483.62;;;19.53;31.58
51999;BME280;73339;50.924;11.598;2024-01-07T05:12:08;99491.11;;;19.46;31.65
51999;BME280;73339;50.924;11.598;2024-01-07T05:14:39;99495.17;;;19.49;31.58
51999;BME280;73339;50.924;11.598;2024-01-07T05:17:09;99503.28;;;19.42;31.63
51999;BME280;73339;50.924;11.598;2024-01-07T05:19:40;99497.86;;;19.49;31.38
51999;BME280;73339;50.924;11.598;2024-01-07T05:22:10;99502.12;;;19.48;31.49
51999;BME280;73339;50.924;11.598;2024-01-07T05:24:41;99512.73;;;19.46;31.49
51999;BME280;73339;50.924;11.598;2024-01-07T05:27:12;99511.82;;;19.50;31.49
51999;BME280;73339;50.924;11.598;2024-01-07T05:29:44;99517.22;;;19.42;31.46
51999;BME280;73339;50.924;11.598;2024-01-07T05:32:12;99514.87;;;19.49;31.34
51999;BME280;73339;50.924;11.598;2024-01-07T05:34:42;99521.48;;;19.44;31.43
51999;BME280;73339;50.924;11.598;2024-01-07T05:37:13;99523.26;;;19.45;31.40
51999;BME280;73339;50.924;11.598;2024-01-07T05:39:43;99526.73;;;19.52;31.34
51999;BME280;73339;50.924;11.598;2024-01-07T05:42:13;99533.31;;;19.51;31.28
51999;BME280;73339;50.924;11.598;2024-01-07T05:44:44;99535.78;;;19.50;31.34
51999;BME280;73339;50.924;11.598;2024-01-07T05:47:14;99537.79;;;19.39;31.43
51999;BME280;73339;50.924;11.598;2024-01-07T05:49:45;99543.40;;;19.44;31.27
51999;BME280;73339;50.924;11.598;2024-01-07T05:52:15;99544.29;;;19.46;31.16
51999;BME280;73339;50.924;11.598;2024-01-07T05:54:46;99540.17;;;19.47;31.15
51999;BME280;73339;50.924;11.598;2024-01-07T05:57:16;99548.39;;;19.39;31.28
51999;BME280;73339;50.924;11.598;2024-01-07T05:59:47;99548.89;;;19.45;31.16
51999;BME280;73339;50.924;11.598;2024-01-07T06:02:18;99548.68;;;19.45;30.97
51999;BME280;73339;50.924;11.598;2024-01-07T06:04:48;99554.50;;;19.42;30.99
51999;BME280;73339;50.924;11.598;2024-01-07T06:07:18;99561.36;;;19.37;30.99
51999;BME280;73339;50.924;11.598;2024-01-07T06:09:49;99561.46;;;19.44;30.89
51999;BME280;73339;50.924;11.598;2024-01-07T06:12:19;99560.90;;;19.45;30.87
51999;BME280;73339;50.924;11.598;2024-01-07T06:14:49;99568.95;;;19.46;31.03
51999;BME280;73339;50.924;11.598;2024-01-07T06:17:20;99570.20;;;19.42;30.90
51999;BME280;73339;50.924;11.598;2024-01-07T06:19:50;99567.40;;;19.49;30.80
51999;BME280;73339;50.924;11.598;2024-01-07T06:22:21;99575.73;;;19.44;30.78
51999;BME280;73339;50.924;11.598;2024-01-07T06:24:51;99577.59;;;19.46;30.86
51999;BME280;73339;50.924;11.598;2024-01-07T06:27:21;99584.07;;;19.40;30.80
51999;BME280;73339;50.924;11.598;2024-01-07T06:29:52;99589.85;;;19.40;30.80
51999;BME280;73339;50.924;11.598;2024-01-07T06:32:22;99595.77;;;19.38;30.76
51999;BME280;73339;50.924;11.598;2024-01-07T06:34:53;99597.58;;;19.44;30.70
51999;BME280;73339;50.924;11.598;2024-01-07T06:37:23;99602.89;;;19.44;30.76
51999;BME280;73339;50.924;11.598;2024-01-07T06:39:54;99604.61;;;19.46;30.65
51999;BME280;73339;50.924;11.598;2024-01-07T06:42:24;99610.39;;;19.43;30.73
51999;BME280;73339;50.924;11.598;2024-01-07T06:44:55;99608.55;;;19.54;30.65
51999;BME280;73339;50.924;11.598;2024-01-07T06:47:25;99613.22;;;19.50;30.81
51999;BME280;73339;50.924;11.598;2024-01-07T06:49:56;99623.58;;;19.48;30.89
51999;BME280;73339;50.924;11.598;2024-01-07T06:52:26;99623.98;;;19.42;30.79
51999;BME280;73339;50.924;11.598;2024-01-07T06:54:57;99630.73;;;19.36;31.02
51999;BME280;73339;50.924;11.598;2024-01-07T06:57:27;99633.88;;;19.38;30.88
51999;BME280;73339;50.924;11.598;2024-01-07T06:59:57;99643.09;;;19.41;30.76
51999;BME280;73339;50.924;11.598;2024-01-07T07:02:27;99638.93;;;19.40;30.84
51999;BME280;73339;50.924;11.598;2024-01-07T07:04:58;99636.32;;;19.42;30.66
51999;BME280;73339;50.924;11.598;2024-01-07T07:07:28;99646.42;;;19.35;30.70
51999;BME280;73339;50.924;11.598;2024-01-07T07:09:59;99645.21;;;19.23;30.81
51999;BME280;73339;50.924;11.598;2024-01-07T07:12:29;99647.71;;;19.37;30.55
51999;BME280;73339;50.924;11.598;2024-01-07T07:14:59;99653.60;;;19.39;30.43
51999;BME280;73339;50.924;11.598;2024-01-07T07:17:30;99654.73;;;19.40;30.42
51999;BME280;73339;50.924;11.598;2024-01-07T07:20:00;99660.89;;;19.37;30.49
51999;BME280;73339;50.924;11.598;2024-01-07T07:22:30;99658.67;;;19.36;30.56
51999;BME280;73339;50.924;11.598;2024-01-07T07:25:01;99666.39;;;19.40;30.36
51999;BME280;73339;50.924;11.598;2024-01-07T07:27:31;99667.65;;;19.39;30.46
51999;BME280;73339;50.924;11.598;2024-01-07T07:30:02;99672.20;;;19.44;30.31
51999;BME280;73339;50.924;11.598;2024-01-07T07:32:32;99678.09;;;19.40;30.36
51999;BME280;73339;50.924;11.598;2024-01-07T07:35:03;99680.82;;;19.45;30.38
51999;BME280;73339;50.924;11.598;2024-01-07T07:37:33;99682.75;;;19.45;30.29
51999;BME280;73339;50.924;11.598;2024-01-07T07:40:05;99686.03;;;19.39;30.51
51999;BME280;73339;50.924;11.598;2024-01-07T07:42:34;99686.92;;;19.45;30.39
51999;BME280;73339;50.924;11.598;2024-01-07T07:45:06;99695.23;;;19.47;30.45
51999;BME280;73339;50.924;11.598;2024-01-07T07:47:35;99699.87;;;19.41;30.52
51999;BME280;73339;50.924;11.598;2024-01-07T07:50:06;99703.52;;;19.42;30.53
51999;BME280;73339;50.924;11.598;2024-01-07T07:52:35;99705.88;;;19.42;30.40
51999;BME280;73339;50.924;11.598;2024-01-07T07:55:06;99711.54;;;19.41;30.49
51999;BME280;73339;50.924;11.598;2024-01-07T07:57:36;99715.95;;;19.41;30.40
51999;BME280;73339;50.924;11.598;2024-01-07T08:00:08;99716.67;;;19.37;30.19
51999;BME280;73339;50.924;11.598;2024-01-07T08:02:38;99720.87;;;19.36;30.30
51999;BME280;73339;50.924;11.598;2024-01-07T08:05:09;99724.75;;;19.40;30.11
51999;BME280;73339;50.924;11.598;2024-01-07T08:07:39;99733.34;;;19.36;30.04
51999;BME280;73339;50.924;11.598;2024-01-07T08:10:09;99731.00;;;19.36;30.07
51999;BME280;73339;50.924;11.598;2024-01-07T08:12:40;99734.22;;;19.30;30.10
51999;BME280;73339;50.924;11.598;2024-01-07T08:15:11;99741.22;;;19.31;30.00
51999;BME280;73339;50.924;11.598;2024-01-07T08:17:41;99736.96;;;19.22;29.97
51999;BME280;73339;50.924;11.598;2024-01-07T08:20:12;99738.43;;;19.35;29.84
51999;BME280;73339;50.924;11.598;2024-01-07T08:22:42;99740.72;;;19.38;29.87
51999;BME280;73339;50.924;11.598;2024-01-07T08:25:13;99740.82;;;19.34;29.90
51999;BME280;73339;50.924;11.598;2024-01-07T08:27:43;99741.90;;;19.42;29.91
51999;BME280;73339;50.924;11.598;2024-01-07T08:30:13;99746.50;;;19.43;29.90
51999;BME280;73339;50.924;11.598;2024-01-07T08:32:44;99749.94;;;19.41;29.91
51999;BME280;73339;50.924;11.598;2024-01-07T08:35:14;99752.23;;;19.39;29.98
51999;BME280;73339;50.924;11.598;2024-01-07T08:37:44;99754.28;;;19.45;29.92
51999;BME280;73339;50.924;11.598;2024-01-07T08:40:15;99757.86;;;19.38;30.00
51999;BME280;73339;50.924;11.598;2024-01-07T08:42:45;99763.48;;;19.43;30.01
51999;BME280;73339;50.924;11.598;2024-01-07T08:45:17;99763.78;;;19.45;29.92
51999;BME280;73339;50.924;11.598;2024-01-07T08:47:47;99767.44;;;19.44;30.00
51999;BME280;73339;50.924;11.598;2024-01-07T08:50:17;99771.72;;;19.41;30.05
51999;BME280;73339;50.924;11.598;2024-01-07T08:52:47;99774.40;;;19.44;30.01
51999;BME280;73339;50.924;11.598;2024-01-07T08:55:18;99775.01;;;19.44;30.20
51999;BME280;73339;50.924;11.598;2024-01-07T08:57:48;99775.78;;;19.49;30.07
51999;BME280;73339;50.924;11.598;2024-01-07T09:00:19;99778.56;;;19.46;30.20
51999;BME280;73339;50.924;11.598;2024-01-07T09:02:49;99782.69;;;19.47;30.12
51999;BME280;73339;50.924;11.598;2024-01-07T09:05:20;99785.30;;;19.38;30.22
51999;BME280;73339;50.924;11.598;2024-01-07T09:07:50;99788.75;;;19.43;30.19
51999;BME280;73339;50.924;11.598;2024-01-07T09:10:22;99790.43;;;19.35;30.44
51999;BME280;73339;50.924;11.598;2024-01-07T09:12:51;99787.87;;;19.40;30.21
51999;BME280;73339;50.924;11.598;2024-01-07T09:15:22;99793.14;;;19.34;30.28
51999;BME280;73339;50.924;11.598;2024-01-07T09:17:52;99794.70;;;19.44;30.23
51999;BME280;73339;50.924;11.598;2024-01-07T09:20:23;99803.31;;;19.42;30.31
51999;BME280;73339;50.924;11.598;2024-01-07T09:22:53;99807.79;;;19.41;30.30
51999;BME280;73339;50.924;11.598;2024-01-07T09:25:23;99809.92;;;19.43;30.32
51999;BME280;73339;50.924;11.598;2024-01-07T09:27:54;99807.74;;;19.42;30.20
51999;BME280;73339;50.924;11.598;2024-01-07T09:30:24;99815.38;;;19.41;30.36
51999;BME280;73339;50.924;11.598;2024-01-07T09:32:55;99823.77;;;19.41;30.20
51999;BME280;73339;50.924;11.598;2024-01-07T09:35:25;99831.46;;;19.39;30.27
51999;BME280;73339;50.924;11.598;2024-01-07T09:37:56;99835.65;;;19.36;30.34
51999;BME280;73339;50.924;11.598;2024-01-07T09:40:26;99834.97;;;19.45;30.22
51999;BME280;73339;50.924;11.598;2024-01-07T09:42:57;99835.61;;;19.41;30.21
51999;BME280;73339;50.924;11.598;2024-01-07T09:45:28;99835.83;;;19.43;30.22
51999;BME280;73339;50.924;11.598;2024-01-07T09:47:58;99847.77;;;19.43;30.16
51999;BME280;73339;50.924;11.598;2024-01-07T09:50:28;99836.43;;;19.39;30.31
51999;BME280;73339;50.924;11.598;2024-01-07T09:53:02;99836.87;;;19.42;30.30
51999;BME280;73339;50.924;11.598;2024-01-07T09:55:34;99837.35;;;19.45;30.12
51999;BME280;73339;50.924;11.598;2024-01-07T09:58:00;99841.76;;;19.36;30.41
51999;BME280;73339;50.924;11.598;2024-01-07T10:00:30;99841.35;;;19.45;30.12
51999;BME280;73339;50.924;11.598;2024-01-07T10:03:00;99841.79;;;19.45;30.18
51999;BME280;73339;50.924;11.598;2024-01-07T10:05:31;99838.17;;;19.42;30.26
51999;BME280;73339;50.924;11.598;2024-01-07T10:08:02;99838.76;;;19.40;30.24
51999;BME280;73339;50.924;11.598;2024-01-07T10:10:32;99835.13;;;19.38;30.29
51999;BME280;73339;50.924;11.598;2024-01-07T10:13:02;99836.53;;;19.42;30.33
51999;BME280;73339;50.924;11.598;2024-01-07T10:15:32;99840.14;;;19.44;30.26
51999;BME280;73339;50.924;11.598;2024-01-07T10:18:05;99844.33;;;19.40;30.35
51999;BME280;73339;50.924;11.598;2024-01-07T10:20:34;99843.92;;;19.36;30.39
51999;BME280;73339;50.924;11.598;2024-01-07T10:23:04;99843.54;;;19.41;30.36
51999;BME280;73339;50.924;11.598;2024-01-07T10:25:35;99844.16;;;19.41;30.32
51999;BME280;73339;50.924;11.598;2024-01-07T10:28:05;99842.45;;;19.39;30.40
51999;BME280;73339;50.924;11.598;2024-01-07T10:30:38;99845.27;;;19.38;30.35
51999;BME280;73339;50.924;11.598;2024-01-07T10:33:07;99848.21;;;19.41;30.36
51999;BME280;73339;50.924;11.598;2024-01-07T10:35:37;99851.13;;;19.39;30.34
51999;BME280;73339;50.924;11.598;2024-01-07T10:38:07;99855.41;;;19.37;30.34
51999;BME280;73339;50.924;11.598;2024-01-07T10:40:38;99860.21;;;19.41;30.31
51999;BME280;73339;50.924;11.598;2024-01-07T10:43:08;99861.53;;;19.42;30.34
51999;BME280;73339;50.924;11.598;2024-01-07T10:45:38;99862.48;;;19.45;30.34
51999;BME280;73339;50.924;11.598;2024-01-07T10:48:10;99866.34;;;19.39;30.48
51999;BME280;73339;50.924;11.598;2024-01-07T10:50:40;99868.90;;;19.44;30.40
51999;BME280;73339;50.924;11.598;2024-01-07T10:53:15;99867.07;;;19.43;30.35
51999;BME280;73339;50.924;11.598;2024-01-07T10:55:42;99872.27;;;19.46;30.27
51999;BME280;73339;50.924;11.598;2024-01-07T10:58:11;99869.19;;;19.42;30.30
51999;BME280;73339;50.924;11.598;2024-01-07T11:00:41;99865.69;;;19.43;30.37
51999;BME280;73339;50.924;11.598;2024-01-07T11:03:14;99864.47;;;19.43;30.38
51999;BME280;73339;50.924;11.598;2024-01-07T11:05:47;99866.26;;;19.42;30.33
51999;BME280;73339;50.924;11.598;2024-01-07T11:08:19;99867.51;;;19.40;30.36
51999;BME280;73339;50.924;11.598;2024-01-07T11:10:46;99869.75;;;19.44;30.32
51999;BME280;73339;50.924;11.598;2024-01-07T11:15:50;99863.45;;;19.39;30.41
51999;BME280;73339;50.924;11.598;2024-01-07T11:18:17;99865.92;;;19.43;30.31
51999;BME280;73339;50.924;11.598;2024-01-07T11:20:45;99868.95;;;19.31;30.51
51999;BME280;73339;50.924;11.598;2024-01-07T11:25:45;99871.91;;;19.44;30.24
51999;BME280;73339;50.924;11.598;2024-01-07T11:28:16;99870.42;;;19.35;30.41
51999;BME280;73339;50.924;11.598;2024-01-07T11:30:47;99868.54;;;19.32;30.45
51999;BME280;73339;50.924;11.598;2024-01-07T11:33:17;99871.01;;;19.38;30.36
51999;BME280;73339;50.924;11.598;2024-01-07T11:35:54;99873.85;;;19.37;30.46
51999;BME280;73339;50.924;11.598;2024-01-07T11:38:17;99877.71;;;19.38;30.33
51999;BME280;73339;50.924;11.598;2024-01-07T11:40:49;99879.46;;;19.41;30.33
51999;BME280;73339;50.924;11.598;2024-01-07T11:43:18;99883.15;;;19.37;30.41
51999;BME280;73339;50.924;11.598;2024-01-07T11:45:50;99882.75;;;19.35;30.36
51999;BME280;73339;50.924;11.598;2024-01-07T11:48:19;99884.51;;;19.31;30.52
51999;BME280;73339;50.924;11.598;2024-01-07T11:50:50;99884.01;;;19.31;30.38
51999;BME280;73339;50.924;11.598;2024-01-07T11:53:20;99885.11;;;19.36;30.23
51999;BME280;73339;50.924;11.598;2024-01-07T11:55:51;99889.90;;;19.37;30.19
51999;BME280;73339;50.924;11.598;2024-01-07T11:58:21;99891.53;;;19.39;30.26
51999;BME280;73339;50.924;11.598;2024-01-07T12:00:52;99890.76;;;19.40;30.18
51999;BME280;73339;50.924;11.598;2024-01-07T12:03:23;99895.27;;;19.38;30.34
51999;BME280;73339;50.924;11.598;2024-01-07T12:05:53;99894.80;;;19.42;30.17
51999;BME280;73339;50.924;11.598;2024-01-07T12:08:23;99896.52;;;19.37;30.27
51999;BME280;73339;50.924;11.598;2024-01-07T12:10:55;99893.42;;;19.42;30.10
51999;BME280;73339;50.924;11.598;2024-01-07T12:13:24;99888.96;;;19.40;30.22
51999;BME280;73339;50.924;11.598;2024-01-07T12:15:55;99892.81;;;19.39;30.16
51999;BME280;73339;50.924;11.598;2024-01-07T12:18:25;99893.39;;;19.38;30.24
51999;BME280;73339;50.924;11.598;2024-01-07T12:20:56;99889.33;;;19.42;30.17
51999;BME280;73339;50.924;11.598;2024-01-07T12:23:26;99887.56;;;19.42;30.20
51999;BME280;73339;50.924;11.598;2024-01-07T12:28:27;99890.83;;;19.41;30.23
51999;BME280;73339;50.924;11.598;2024-01-07T12:30:57;99894.76;;;19.38;30.27
51999;BME280;73339;50.924;11.598;2024-01-07T12:33:28;99900.21;;;19.33;30.25
51999;BME280;73339;50.924;11.598;2024-01-07T12:35:58;99900.21;;;19.31;30.26
51999;BME280;73339;50.924;11.598;2024-01-07T12:38:28;99903.41;;;19.31;30.14
51999;BME280;73339;50.924;11.598;2024-01-07T12:40:59;99908.39;;;19.31;30.20
51999;BME280;73339;50.924;11.598;2024-01-07T12:43:29;99909.77;;;19.25;30.24
51999;BME280;73339;50.924;11.598;2024-01-07T12:46:00;99913.96;;;19.32;30.16
51999;BME280;73339;50.924;11.598;2024-01-07T12:48:31;99914.91;;;19.30;30.13
51999;BME280;73339;50.924;11.598;2024-01-07T12:51:01;99920.27;;;19.24;30.17
51999;BME280;73339;50.924;11.598;2024-01-07T12:53:31;99921.65;;;19.28;29.99
51999;BME280;73339;50.924;11.598;2024-01-07T12:56:02;99923.80;;;19.28;29.95
51999;BME280;73339;50.924;11.598;2024-01-07T12:58:32;99922.71;;;19.33;29.90
51999;BME280;73339;50.924;11.598;2024-01-07T13:01:03;99921.92;;;19.37;29.77
51999;BME280;73339;50.924;11.598;2024-01-07T13:03:33;99927.99;;;19.23;29.92
51999;BME280;73339;50.924;11.598;2024-01-07T13:06:04;99927.38;;;19.35;29.58
51999;BME280;73339;50.924;11.598;2024-01-07T13:08:34;99926.65;;;19.33;29.54
51999;BME280;73339;50.924;11.598;2024-01-07T13:11:05;99932.33;;;19.33;29.55
51999;BME280;73339;50.924;11.598;2024-01-07T13:13:35;99936.39;;;19.37;29.54